sensor_id;sensor_type;location;lat;lon;timestamp;temperature;humidity
4501;DHT22;2263;54.654;9.410;2023-05-07T00:02:15;9.30;87.20
4501;DHT22;2263;54.654;9.410;2023-05-07T00:04:43;9.30;87.20
4501;DHT22;2263;54.654;9.410;2023-05-07T00:07:11;9.30;87.20
4501;DHT22;2263;54.654;9.410;2023-05-07T00:09:38;9.30;87.20
4501;DHT22;2263;54.654;9.410;2023-05-07T00:12:07;9.30;87.30
4501;DHT22;2263;54.654;9.410;2023-05-07T00:14:35;9.30;87.20
4501;DHT22;2263;54.654;9.410;2023-05-07T00:17:03;9.30;87.20
4501;DHT22;2263;54.654;9.410;2023-05-07T00:19:30;9.30;87.30
4501;DHT22;2263;54.654;9.410;2023-05-07T00:21:58;9.30;87.40
4501;DHT22;2263;54.654;9.410;2023-05-07T00:24:26;9.30;87.30
4501;DHT22;2263;54.654;9.410;2023-05-07T00:26:54;9.30;87.30
4501;DHT22;2263;54.654;9.410;2023-05-07T00:29:21;9.30;87.50
4501;DHT22;2263;54.654;9.410;2023-05-07T00:31:49;9.30;87.50
4501;DHT22;2263;54.654;9.410;2023-05-07T00:34:18;9.20;87.50
4501;DHT22;2263;54.654;9.410;2023-05-07T00:36:46;9.30;87.40
4501;DHT22;2263;54.654;9.410;2023-05-07T00:39:13;9.20;87.50
4501;DHT22;2263;54.654;9.410;2023-05-07T00:41:41;9.20;87.60
4501;DHT22;2263;54.654;9.410;2023-05-07T00:44:09;9.20;87.50
4501;DHT22;2263;54.654;9.410;2023-05-07T00:46:36;9.20;87.50
4501;DHT22;2263;54.654;9.410;2023-05-07T00:49:05;9.20;87.80
4501;DHT22;2263;54.654;9.410;2023-05-07T00:51:33;9.20;87.60
4501;DHT22;2263;54.654;9.410;2023-05-07T00:54:02;9.20;87.80
4501;DHT22;2263;54.654;9.410;2023-05-07T00:56:30;9.20;87.70
4501;DHT22;2263;54.654;9.410;2023-05-07T00:58:59;9.20;87.80
4501;DHT22;2263;54.654;9.410;2023-05-07T01:01:28;9.20;87.90
4501;DHT22;2263;54.654;9.410;2023-05-07T01:03:59;9.20;87.90
4501;DHT22;2263;54.654;9.410;2023-05-07T01:06:28;9.20;88.00
4501;DHT22;2263;54.654;9.410;2023-05-07T01:08:57;9.20;88.00
4501;DHT22;2263;54.654;9.410;2023-05-07T01:11:25;9.20;88.10
4501;DHT22;2263;54.654;9.410;2023-05-07T01:13:53;9.20;88.10
4501;DHT22;2263;54.654;9.410;2023-05-07T01:16:21;9.30;88.10
4501;DHT22;2263;54.654;9.410;2023-05-07T01:18:49;9.20;88.10
4501;DHT22;2263;54.654;9.410;2023-05-07T01:21:17;9.20;88.10
4501;DHT22;2263;54.654;9.410;2023-05-07T01:23:45;9.20;88.10
4501;DHT22;2263;54.654;9.410;2023-05-07T01:26:14;9.20;88.10
4501;DHT22;2263;54.654;9.410;2023-05-07T01:28:42;9.20;87.80
4501;DHT22;2263;54.654;9.410;2023-05-07T01:31:10;9.20;88.10
4501;DHT22;2263;54.654;9.410;2023-05-07T01:33:40;9.20;88.20
4501;DHT22;2263;54.654;9.410;2023-05-07T01:36:10;9.20;88.00
4501;DHT22;2263;54.654;9.410;2023-05-07T01:38:39;9.20;88.30
4501;DHT22;2263;54.654;9.410;2023-05-07T01:41:08;9.20;88.30
4501;DHT22;2263;54.654;9.410;2023-05-07T01:43:36;9.20;88.10
4501;DHT22;2263;54.654;9.410;2023-05-07T01:46:04;9.20;88.40
4501;DHT22;2263;54.654;9.410;2023-05-07T01:48:32;9.20;88.20
4501;DHT22;2263;54.654;9.410;2023-05-07T01:51:01;9.20;88.30
4501;DHT22;2263;54.654;9.410;2023-05-07T01:53:35;9.20;88.20
4501;DHT22;2263;54.654;9.410;2023-05-07T01:56:04;9.20;88.10
4501;DHT22;2263;54.654;9.410;2023-05-07T01:58:32;9.20;88.20
4501;DHT22;2263;54.654;9.410;2023-05-07T02:01:00;9.20;88.30
4501;DHT22;2263;54.654;9.410;2023-05-07T02:03:27;9.20;88.50
4501;DHT22;2263;54.654;9.410;2023-05-07T02:05:55;9.20;88.30
4501;DHT22;2263;54.654;9.410;2023-05-07T02:08:23;9.20;88.70
4501;DHT22;2263;54.654;9.410;2023-05-07T02:10:51;9.20;88.50
4501;DHT22;2263;54.654;9.410;2023-05-07T02:13:18;9.20;88.60
4501;DHT22;2263;54.654;9.410;2023-05-07T02:15:47;9.20;88.50
4501;DHT22;2263;54.654;9.410;2023-05-07T02:18:17;9.20;88.40
4501;DHT22;2263;54.654;9.410;2023-05-07T02:20:45;9.20;88.50
4501;DHT22;2263;54.654;9.410;2023-05-07T02:23:12;9.20;88.40
4501;DHT22;2263;54.654;9.410;2023-05-07T02:25:40;9.20;88.40
4501;DHT22;2263;54.654;9.410;2023-05-07T02:28:07;9.20;88.60
4501;DHT22;2263;54.654;9.410;2023-05-07T02:30:36;9.20;88.50
4501;DHT22;2263;54.654;9.410;2023-05-07T02:33:04;9.20;88.50
4501;DHT22;2263;54.654;9.410;2023-05-07T02:35:31;9.20;88.30
4501;DHT22;2263;54.654;9.410;2023-05-07T02:37:59;9.20;88.50
4501;DHT22;2263;54.654;9.410;2023-05-07T02:40:27;9.20;88.50
4501;DHT22;2263;54.654;9.410;2023-05-07T02:42:54;9.20;88.40
4501;DHT22;2263;54.654;9.410;2023-05-07T02:45:22;9.20;88.60
4501;DHT22;2263;54.654;9.410;2023-05-07T02:47:49;9.20;88.50
4501;DHT22;2263;54.654;9.410;2023-05-07T02:50:17;9.20;88.50
4501;DHT22;2263;54.654;9.410;2023-05-07T02:52:45;9.20;88.60
4501;DHT22;2263;54.654;9.410;2023-05-07T02:55:12;9.20;88.60
4501;DHT22;2263;54.654;9.410;2023-05-07T02:57:40;9.20;88.60
4501;DHT22;2263;54.654;9.410;2023-05-07T03:00:15;9.20;88.50
4501;DHT22;2263;54.654;9.410;2023-05-07T03:02:44;9.20;88.60
4501;DHT22;2263;54.654;9.410;2023-05-07T03:05:12;9.20;88.50
4501;DHT22;2263;54.654;9.410;2023-05-07T03:07:40;9.20;88.70
4501;DHT22;2263;54.654;9.410;2023-05-07T03:10:11;9.20;89.00
4501;DHT22;2263;54.654;9.410;2023-05-07T03:12:39;9.20;88.70
4501;DHT22;2263;54.654;9.410;2023-05-07T03:15:07;9.20;88.60
4501;DHT22;2263;54.654;9.410;2023-05-07T03:17:35;9.20;88.70
4501;DHT22;2263;54.654;9.410;2023-05-07T03:20:03;9.20;88.60
4501;DHT22;2263;54.654;9.410;2023-05-07T03:22:31;9.20;88.80
4501;DHT22;2263;54.654;9.410;2023-05-07T03:24:58;9.20;88.60
4501;DHT22;2263;54.654;9.410;2023-05-07T03:27:26;9.20;88.60
4501;DHT22;2263;54.654;9.410;2023-05-07T03:29:54;9.10;88.50
4501;DHT22;2263;54.654;9.410;2023-05-07T03:32:22;9.20;88.80
4501;DHT22;2263;54.654;9.410;2023-05-07T03:34:49;9.10;88.70
4501;DHT22;2263;54.654;9.410;2023-05-07T03:37:17;9.10;88.60
4501;DHT22;2263;54.654;9.410;2023-05-07T03:39:44;9.10;88.60
4501;DHT22;2263;54.654;9.410;2023-05-07T03:42:12;9.10;88.60
4501;DHT22;2263;54.654;9.410;2023-05-07T03:44:39;9.10;88.60
4501;DHT22;2263;54.654;9.410;2023-05-07T03:47:07;9.20;88.70
4501;DHT22;2263;54.654;9.410;2023-05-07T03:49:35;9.10;88.60
4501;DHT22;2263;54.654;9.410;2023-05-07T03:52:02;9.10;88.60
4501;DHT22;2263;54.654;9.410;2023-05-07T03:54:30;9.10;88.60
4501;DHT22;2263;54.654;9.410;2023-05-07T03:56:58;9.20;88.70
4501;DHT22;2263;54.654;9.410;2023-05-07T03:59:25;9.20;88.60
4501;DHT22;2263;54.654;9.410;2023-05-07T04:01:53;9.10;88.70
4501;DHT22;2263;54.654;9.410;2023-05-07T04:04:20;9.10;88.60
4501;DHT22;2263;54.654;9.410;2023-05-07T04:06:48;9.10;88.90
4501;DHT22;2263;54.654;9.410;2023-05-07T04:09:16;9.20;89.00
4501;DHT22;2263;54.654;9.410;2023-05-07T04:11:43;9.10;88.80
4501;DHT22;2263;54.654;9.410;2023-05-07T04:14:11;9.20;88.80
4501;DHT22;2263;54.654;9.410;2023-05-07T04:16:38;9.10;88.70
4501;DHT22;2263;54.654;9.410;2023-05-07T04:19:06;9.10;88.90
4501;DHT22;2263;54.654;9.410;2023-05-07T04:21:34;9.10;88.70
4501;DHT22;2263;54.654;9.410;2023-05-07T04:24:03;9.10;88.70
4501;DHT22;2263;54.654;9.410;2023-05-07T04:26:31;9.10;88.60
4501;DHT22;2263;54.654;9.410;2023-05-07T04:28:58;9.10;88.70
4501;DHT22;2263;54.654;9.410;2023-05-07T04:31:26;9.20;88.80
4501;DHT22;2263;54.654;9.410;2023-05-07T04:33:54;9.10;88.60
4501;DHT22;2263;54.654;9.410;2023-05-07T04:36:22;9.10;88.60
4501;DHT22;2263;54.654;9.410;2023-05-07T04:38:50;9.20;88.80
4501;DHT22;2263;54.654;9.410;2023-05-07T04:41:17;9.10;88.50
4501;DHT22;2263;54.654;9.410;2023-05-07T04:43:45;9.20;88.70
4501;DHT22;2263;54.654;9.410;2023-05-07T04:46:12;9.10;88.60
4501;DHT22;2263;54.654;9.410;2023-05-07T04:48:40;9.10;88.70
4501;DHT22;2263;54.654;9.410;2023-05-07T04:51:08;9.10;88.60
4501;DHT22;2263;54.654;9.410;2023-05-07T04:53:35;9.10;88.70
4501;DHT22;2263;54.654;9.410;2023-05-07T04:56:03;9.10;88.70
4501;DHT22;2263;54.654;9.410;2023-05-07T04:58:31;9.10;88.80
4501;DHT22;2263;54.654;9.410;2023-05-07T05:00:59;9.10;88.70
4501;DHT22;2263;54.654;9.410;2023-05-07T05:03:27;9.10;88.60
4501;DHT22;2263;54.654;9.410;2023-05-07T05:05:55;9.10;88.80
4501;DHT22;2263;54.654;9.410;2023-05-07T05:08:26;9.20;88.80
4501;DHT22;2263;54.654;9.410;2023-05-07T05:10:53;9.10;88.70
4501;DHT22;2263;54.654;9.410;2023-05-07T05:13:21;9.10;88.80
4501;DHT22;2263;54.654;9.410;2023-05-07T05:15:49;9.10;88.60
4501;DHT22;2263;54.654;9.410;2023-05-07T05:18:17;9.10;88.80
4501;DHT22;2263;54.654;9.410;2023-05-07T05:20:45;9.20;88.90
4501;DHT22;2263;54.654;9.410;2023-05-07T05:23:12;9.10;88.80
4501;DHT22;2263;54.654;9.410;2023-05-07T05:25:40;9.10;88.70
4501;DHT22;2263;54.654;9.410;2023-05-07T05:28:07;9.10;88.70
4501;DHT22;2263;54.654;9.410;2023-05-07T05:30:35;9.10;88.70
4501;DHT22;2263;54.654;9.410;2023-05-07T05:33:03;9.10;88.70
4501;DHT22;2263;54.654;9.410;2023-05-07T05:35:30;9.20;88.80
4501;DHT22;2263;54.654;9.410;2023-05-07T05:37:59;9.10;88.70
4501;DHT22;2263;54.654;9.410;2023-05-07T05:40:26;9.20;88.90
4501;DHT22;2263;54.654;9.410;2023-05-07T05:42:54;9.20;88.80
4501;DHT22;2263;54.654;9.410;2023-05-07T05:45:21;9.20;89.00
4501;DHT22;2263;54.654;9.410;2023-05-07T05:47:49;9.20;89.00
4501;DHT22;2263;54.654;9.410;2023-05-07T05:50:17;9.20;89.30
4501;DHT22;2263;54.654;9.410;2023-05-07T05:52:44;9.20;89.20
4501;DHT22;2263;54.654;9.410;2023-05-07T05:55:12;9.20;89.10
4501;DHT22;2263;54.654;9.410;2023-05-07T05:57:39;9.20;89.90
4501;DHT22;2263;54.654;9.410;2023-05-07T06:00:08;9.20;89.10
4501;DHT22;2263;54.654;9.410;2023-05-07T06:02:37;9.20;89.20
4501;DHT22;2263;54.654;9.410;2023-05-07T06:05:05;9.20;89.50
4501;DHT22;2263;54.654;9.410;2023-05-07T06:07:32;9.20;89.40
4501;DHT22;2263;54.654;9.410;2023-05-07T06:10:01;9.30;89.60
4501;DHT22;2263;54.654;9.410;2023-05-07T06:12:29;9.30;89.80
4501;DHT22;2263;54.654;9.410;2023-05-07T06:14:56;9.30;89.60
4501;DHT22;2263;54.654;9.410;2023-05-07T06:17:24;9.30;89.60
4501;DHT22;2263;54.654;9.410;2023-05-07T06:19:52;9.30;90.10
4501;DHT22;2263;54.654;9.410;2023-05-07T06:22:20;9.30;90.10
4501;DHT22;2263;54.654;9.410;2023-05-07T06:24:47;9.30;90.10
4501;DHT22;2263;54.654;9.410;2023-05-07T06:27:15;9.30;90.10
4501;DHT22;2263;54.654;9.410;2023-05-07T06:29:42;9.30;90.20
4501;DHT22;2263;54.654;9.410;2023-05-07T06:32:11;9.30;90.00
4501;DHT22;2263;54.654;9.410;2023-05-07T06:34:40;9.30;90.10
4501;DHT22;2263;54.654;9.410;2023-05-07T06:37:07;9.30;90.00
4501;DHT22;2263;54.654;9.410;2023-05-07T06:39:35;9.30;89.90
4501;DHT22;2263;54.654;9.410;2023-05-07T06:42:02;9.30;90.10
4501;DHT22;2263;54.654;9.410;2023-05-07T06:44:32;9.30;90.10
4501;DHT22;2263;54.654;9.410;2023-05-07T06:46:59;9.30;90.00
4501;DHT22;2263;54.654;9.410;2023-05-07T06:49:27;9.40;90.10
4501;DHT22;2263;54.654;9.410;2023-05-07T06:51:54;9.40;90.10
4501;DHT22;2263;54.654;9.410;2023-05-07T06:54:22;9.40;90.20
4501;DHT22;2263;54.654;9.410;2023-05-07T06:56:50;9.40;90.10
4501;DHT22;2263;54.654;9.410;2023-05-07T06:59:18;9.40;90.00
4501;DHT22;2263;54.654;9.410;2023-05-07T07:01:46;9.40;90.20
4501;DHT22;2263;54.654;9.410;2023-05-07T07:04:14;9.40;90.10
4501;DHT22;2263;54.654;9.410;2023-05-07T07:06:42;9.40;90.10
4501;DHT22;2263;54.654;9.410;2023-05-07T07:09:09;9.40;90.10
4501;DHT22;2263;54.654;9.410;2023-05-07T07:11:37;9.40;90.40
4501;DHT22;2263;54.654;9.410;2023-05-07T07:14:05;9.40;90.00
4501;DHT22;2263;54.654;9.410;2023-05-07T07:16:33;9.50;90.20
4501;DHT22;2263;54.654;9.410;2023-05-07T07:19:00;9.50;90.10
4501;DHT22;2263;54.654;9.410;2023-05-07T07:21:28;9.50;90.20
4501;DHT22;2263;54.654;9.410;2023-05-07T07:23:55;9.50;90.10
4501;DHT22;2263;54.654;9.410;2023-05-07T07:26:23;9.50;90.10
4501;DHT22;2263;54.654;9.410;2023-05-07T07:28:51;9.50;90.00
4501;DHT22;2263;54.654;9.410;2023-05-07T07:31:18;9.50;90.00
4501;DHT22;2263;54.654;9.410;2023-05-07T07:33:46;9.50;89.90
4501;DHT22;2263;54.654;9.410;2023-05-07T07:36:13;9.50;90.00
4501;DHT22;2263;54.654;9.410;2023-05-07T07:38:41;9.50;89.90
4501;DHT22;2263;54.654;9.410;2023-05-07T07:41:09;9.50;90.00
4501;DHT22;2263;54.654;9.410;2023-05-07T07:43:37;9.50;90.00
4501;DHT22;2263;54.654;9.410;2023-05-07T07:46:04;9.50;90.00
4501;DHT22;2263;54.654;9.410;2023-05-07T07:48:33;9.50;90.00
4501;DHT22;2263;54.654;9.410;2023-05-07T07:51:00;9.50;90.00
4501;DHT22;2263;54.654;9.410;2023-05-07T07:53:28;9.60;90.10
4501;DHT22;2263;54.654;9.410;2023-05-07T07:55:55;9.60;90.10
4501;DHT22;2263;54.654;9.410;2023-05-07T07:58:25;9.60;90.20
4501;DHT22;2263;54.654;9.410;2023-05-07T08:00:53;9.60;90.10
4501;DHT22;2263;54.654;9.410;2023-05-07T08:03:23;9.60;90.10
4501;DHT22;2263;54.654;9.410;2023-05-07T08:05:51;9.60;90.20
4501;DHT22;2263;54.654;9.410;2023-05-07T08:08:19;9.60;90.20
4501;DHT22;2263;54.654;9.410;2023-05-07T08:10:46;9.60;90.10
4501;DHT22;2263;54.654;9.410;2023-05-07T08:13:17;9.60;90.20
4501;DHT22;2263;54.654;9.410;2023-05-07T08:15:45;9.70;90.60
4501;DHT22;2263;54.654;9.410;2023-05-07T08:18:13;9.70;90.60
4501;DHT22;2263;54.654;9.410;2023-05-07T08:20:40;9.70;90.40
4501;DHT22;2263;54.654;9.410;2023-05-07T08:23:08;9.70;90.30
4501;DHT22;2263;54.654;9.410;2023-05-07T08:25:36;9.70;90.30
4501;DHT22;2263;54.654;9.410;2023-05-07T08:28:04;9.70;90.30
4501;DHT22;2263;54.654;9.410;2023-05-07T08:30:35;9.70;90.20
4501;DHT22;2263;54.654;9.410;2023-05-07T08:33:03;9.80;90.20
4501;DHT22;2263;54.654;9.410;2023-05-07T08:35:31;9.80;90.10
4501;DHT22;2263;54.654;9.410;2023-05-07T08:37:58;9.80;90.20
4501;DHT22;2263;54.654;9.410;2023-05-07T08:40:26;9.80;90.20
4501;DHT22;2263;54.654;9.410;2023-05-07T08:42:55;9.80;90.10
4501;DHT22;2263;54.654;9.410;2023-05-07T08:45:24;9.90;90.20
4501;DHT22;2263;54.654;9.410;2023-05-07T08:47:58;9.90;90.20
4501;DHT22;2263;54.654;9.410;2023-05-07T08:50:27;10.00;89.70
4501;DHT22;2263;54.654;9.410;2023-05-07T08:52:56;10.00;89.50
4501;DHT22;2263;54.654;9.410;2023-05-07T08:55:24;10.00;89.60
4501;DHT22;2263;54.654;9.410;2023-05-07T08:57:52;10.00;89.20
4501;DHT22;2263;54.654;9.410;2023-05-07T09:00:20;10.10;89.80
4501;DHT22;2263;54.654;9.410;2023-05-07T09:02:47;10.10;90.00
4501;DHT22;2263;54.654;9.410;2023-05-07T09:05:15;10.20;89.80
4501;DHT22;2263;54.654;9.410;2023-05-07T09:07:43;10.20;89.50
4501;DHT22;2263;54.654;9.410;2023-05-07T09:10:10;10.20;89.60
4501;DHT22;2263;54.654;9.410;2023-05-07T09:12:39;10.20;89.40
4501;DHT22;2263;54.654;9.410;2023-05-07T09:15:07;10.20;89.40
4501;DHT22;2263;54.654;9.410;2023-05-07T09:17:35;10.30;89.60
4501;DHT22;2263;54.654;9.410;2023-05-07T09:20:04;10.30;89.50
4501;DHT22;2263;54.654;9.410;2023-05-07T09:22:39;10.30;89.30
4501;DHT22;2263;54.654;9.410;2023-05-07T09:25:07;10.30;90.10
4501;DHT22;2263;54.654;9.410;2023-05-07T09:27:36;10.50;90.40
4501;DHT22;2263;54.654;9.410;2023-05-07T09:30:05;10.60;90.40
4501;DHT22;2263;54.654;9.410;2023-05-07T09:32:37;10.70;90.50
4501;DHT22;2263;54.654;9.410;2023-05-07T09:35:17;10.70;90.40
4501;DHT22;2263;54.654;9.410;2023-05-07T09:37:45;10.80;89.80
4501;DHT22;2263;54.654;9.410;2023-05-07T09:40:24;10.80;90.10
4501;DHT22;2263;54.654;9.410;2023-05-07T09:42:52;10.70;89.70
4501;DHT22;2263;54.654;9.410;2023-05-07T09:45:26;10.80;90.10
4501;DHT22;2263;54.654;9.410;2023-05-07T09:47:58;10.80;89.80
4501;DHT22;2263;54.654;9.410;2023-05-07T09:50:28;10.70;89.80
4501;DHT22;2263;54.654;9.410;2023-05-07T09:52:56;10.80;89.80
4501;DHT22;2263;54.654;9.410;2023-05-07T09:55:24;10.80;89.70
4501;DHT22;2263;54.654;9.410;2023-05-07T09:57:53;10.80;89.80
4501;DHT22;2263;54.654;9.410;2023-05-07T10:00:21;10.80;89.70
4501;DHT22;2263;54.654;9.410;2023-05-07T10:02:52;10.80;89.70
4501;DHT22;2263;54.654;9.410;2023-05-07T10:05:20;10.90;89.60
4501;DHT22;2263;54.654;9.410;2023-05-07T10:07:49;10.80;89.60
4501;DHT22;2263;54.654;9.410;2023-05-07T10:10:17;10.80;89.50
4501;DHT22;2263;54.654;9.410;2023-05-07T10:12:45;10.80;89.40
4501;DHT22;2263;54.654;9.410;2023-05-07T10:15:13;10.80;89.40
4501;DHT22;2263;54.654;9.410;2023-05-07T10:17:41;10.80;89.30
4501;DHT22;2263;54.654;9.410;2023-05-07T10:20:09;10.80;89.40
4501;DHT22;2263;54.654;9.410;2023-05-07T10:22:47;10.80;89.30
4501;DHT22;2263;54.654;9.410;2023-05-07T10:25:22;10.90;89.30
4501;DHT22;2263;54.654;9.410;2023-05-07T10:27:52;10.90;89.50
4501;DHT22;2263;54.654;9.410;2023-05-07T10:33:24;11.00;89.30
4501;DHT22;2263;54.654;9.410;2023-05-07T10:35:59;11.00;89.30
4501;DHT22;2263;54.654;9.410;2023-05-07T10:38:28;11.00;89.30
4501;DHT22;2263;54.654;9.410;2023-05-07T10:40:56;11.00;89.40
4501;DHT22;2263;54.654;9.410;2023-05-07T10:43:24;11.00;89.70
4501;DHT22;2263;54.654;9.410;2023-05-07T10:46:11;11.00;89.50
4501;DHT22;2263;54.654;9.410;2023-05-07T10:51:38;11.10;90.00
4501;DHT22;2263;54.654;9.410;2023-05-07T10:56:41;11.10;89.70
4501;DHT22;2263;54.654;9.410;2023-05-07T11:02:04;11.20;89.60
4501;DHT22;2263;54.654;9.410;2023-05-07T11:04:35;11.20;89.30
4501;DHT22;2263;54.654;9.410;2023-05-07T11:15:07;11.30;89.60
4501;DHT22;2263;54.654;9.410;2023-05-07T11:17:53;11.40;89.70
4501;DHT22;2263;54.654;9.410;2023-05-07T11:20:27;11.40;89.60
4501;DHT22;2263;54.654;9.410;2023-05-07T11:26:05;11.60;89.50
4501;DHT22;2263;54.654;9.410;2023-05-07T11:28:39;11.70;89.80
4501;DHT22;2263;54.654;9.410;2023-05-07T11:31:07;11.60;89.50
4501;DHT22;2263;54.654;9.410;2023-05-07T11:33:36;11.60;89.50
4501;DHT22;2263;54.654;9.410;2023-05-07T11:36:04;11.70;89.20
4501;DHT22;2263;54.654;9.410;2023-05-07T11:38:36;11.70;89.40
4501;DHT22;2263;54.654;9.410;2023-05-07T11:41:04;11.80;89.60
4501;DHT22;2263;54.654;9.410;2023-05-07T11:43:32;11.80;89.60
4501;DHT22;2263;54.654;9.410;2023-05-07T11:46:09;11.80;89.20
4501;DHT22;2263;54.654;9.410;2023-05-07T11:48:38;11.80;89.60
4501;DHT22;2263;54.654;9.410;2023-05-07T11:51:06;11.80;89.10
4501;DHT22;2263;54.654;9.410;2023-05-07T11:53:38;11.90;89.50
4501;DHT22;2263;54.654;9.410;2023-05-07T11:56:11;11.90;89.50
4501;DHT22;2263;54.654;9.410;2023-05-07T11:58:40;11.90;89.20
4501;DHT22;2263;54.654;9.410;2023-05-07T12:01:10;12.00;89.50
4501;DHT22;2263;54.654;9.410;2023-05-07T12:03:41;12.00;89.10
4501;DHT22;2263;54.654;9.410;2023-05-07T12:06:10;12.00;89.30
4501;DHT22;2263;54.654;9.410;2023-05-07T12:08:40;12.00;89.40
4501;DHT22;2263;54.654;9.410;2023-05-07T12:11:11;12.00;89.10
4501;DHT22;2263;54.654;9.410;2023-05-07T12:13:41;12.10;89.40
4501;DHT22;2263;54.654;9.410;2023-05-07T12:16:09;12.10;89.50
4501;DHT22;2263;54.654;9.410;2023-05-07T12:18:40;12.10;89.20
4501;DHT22;2263;54.654;9.410;2023-05-07T12:21:07;12.10;89.30
4501;DHT22;2263;54.654;9.410;2023-05-07T12:23:36;12.20;89.40
4501;DHT22;2263;54.654;9.410;2023-05-07T12:26:05;12.30;89.10
4501;DHT22;2263;54.654;9.410;2023-05-07T12:28:38;12.50;88.80
4501;DHT22;2263;54.654;9.410;2023-05-07T12:31:06;12.40;88.70
4501;DHT22;2263;54.654;9.410;2023-05-07T12:33:35;12.40;89.00
4501;DHT22;2263;54.654;9.410;2023-05-07T12:36:06;12.40;89.10
4501;DHT22;2263;54.654;9.410;2023-05-07T12:38:38;12.40;88.90
4501;DHT22;2263;54.654;9.410;2023-05-07T12:41:07;12.50;89.10
4501;DHT22;2263;54.654;9.410;2023-05-07T12:43:36;12.50;89.20
4501;DHT22;2263;54.654;9.410;2023-05-07T12:46:05;12.60;89.30
4501;DHT22;2263;54.654;9.410;2023-05-07T12:48:35;12.60;89.10
4501;DHT22;2263;54.654;9.410;2023-05-07T12:51:03;12.60;89.40
4501;DHT22;2263;54.654;9.410;2023-05-07T12:53:32;12.70;88.90
4501;DHT22;2263;54.654;9.410;2023-05-07T12:55:59;12.70;88.80
4501;DHT22;2263;54.654;9.410;2023-05-07T12:58:33;12.80;88.80
4501;DHT22;2263;54.654;9.410;2023-05-07T13:01:05;12.80;89.10
4501;DHT22;2263;54.654;9.410;2023-05-07T13:03:38;12.80;88.90
4501;DHT22;2263;54.654;9.410;2023-05-07T13:06:07;12.80;88.80
4501;DHT22;2263;54.654;9.410;2023-05-07T13:08:39;12.80;88.70
4501;DHT22;2263;54.654;9.410;2023-05-07T13:11:11;12.90;88.90
4501;DHT22;2263;54.654;9.410;2023-05-07T13:13:40;12.90;89.50
4501;DHT22;2263;54.654;9.410;2023-05-07T13:16:10;13.00;89.30
4501;DHT22;2263;54.654;9.410;2023-05-07T13:18:40;13.20;88.10
4501;DHT22;2263;54.654;9.410;2023-05-07T13:21:11;13.50;88.00
4501;DHT22;2263;54.654;9.410;2023-05-07T13:23:40;13.70;87.60
4501;DHT22;2263;54.654;9.410;2023-05-07T13:26:08;13.90;86.40
4501;DHT22;2263;54.654;9.410;2023-05-07T13:28:53;14.00;86.90
4501;DHT22;2263;54.654;9.410;2023-05-07T13:31:21;14.10;85.70
4501;DHT22;2263;54.654;9.410;2023-05-07T13:33:49;14.10;85.20
4501;DHT22;2263;54.654;9.410;2023-05-07T13:36:17;14.10;85.00
4501;DHT22;2263;54.654;9.410;2023-05-07T13:38:44;14.20;85.40
4501;DHT22;2263;54.654;9.410;2023-05-07T13:41:14;14.30;84.50
4501;DHT22;2263;54.654;9.410;2023-05-07T13:43:42;14.30;85.20
4501;DHT22;2263;54.654;9.410;2023-05-07T13:46:09;14.40;85.60
4501;DHT22;2263;54.654;9.410;2023-05-07T13:48:37;14.50;85.30
4501;DHT22;2263;54.654;9.410;2023-05-07T13:51:05;14.60;85.70
4501;DHT22;2263;54.654;9.410;2023-05-07T13:53:32;14.70;85.00
4501;DHT22;2263;54.654;9.410;2023-05-07T13:56:01;14.70;84.60
4501;DHT22;2263;54.654;9.410;2023-05-07T13:58:31;14.60;84.40
4501;DHT22;2263;54.654;9.410;2023-05-07T14:00:59;14.70;84.10
4501;DHT22;2263;54.654;9.410;2023-05-07T14:03:27;14.70;84.00
4501;DHT22;2263;54.654;9.410;2023-05-07T14:05:55;14.50;84.60
4501;DHT22;2263;54.654;9.410;2023-05-07T14:08:25;14.30;85.00
4501;DHT22;2263;54.654;9.410;2023-05-07T14:10:53;14.20;85.30
4501;DHT22;2263;54.654;9.410;2023-05-07T14:13:20;14.10;85.40
4501;DHT22;2263;54.654;9.410;2023-05-07T14:15:48;14.10;85.70
4501;DHT22;2263;54.654;9.410;2023-05-07T14:18:16;14.10;86.00
4501;DHT22;2263;54.654;9.410;2023-05-07T14:20:43;14.00;86.00
4501;DHT22;2263;54.654;9.410;2023-05-07T14:23:13;14.00;86.00
4501;DHT22;2263;54.654;9.410;2023-05-07T14:25:41;14.00;85.90
4501;DHT22;2263;54.654;9.410;2023-05-07T14:28:10;14.00;85.90
4501;DHT22;2263;54.654;9.410;2023-05-07T14:30:38;14.00;85.90
4501;DHT22;2263;54.654;9.410;2023-05-07T14:33:05;14.00;85.80
4501;DHT22;2263;54.654;9.410;2023-05-07T14:35:33;14.00;85.90
4501;DHT22;2263;54.654;9.410;2023-05-07T14:38:00;14.10;86.10
4501;DHT22;2263;54.654;9.410;2023-05-07T14:40:28;14.30;84.40
4501;DHT22;2263;54.654;9.410;2023-05-07T14:42:56;14.40;84.40
4501;DHT22;2263;54.654;9.410;2023-05-07T14:45:25;14.50;83.00
4501;DHT22;2263;54.654;9.410;2023-05-07T14:47:55;14.50;83.40
4501;DHT22;2263;54.654;9.410;2023-05-07T14:50:25;14.40;84.10
4501;DHT22;2263;54.654;9.410;2023-05-07T14:52:53;14.30;84.60
4501;DHT22;2263;54.654;9.410;2023-05-07T14:55:20;14.20;84.60
4501;DHT22;2263;54.654;9.410;2023-05-07T14:57:48;14.20;85.00
4501;DHT22;2263;54.654;9.410;2023-05-07T15:00:16;14.10;84.60
4501;DHT22;2263;54.654;9.410;2023-05-07T15:02:43;14.10;84.80
4501;DHT22;2263;54.654;9.410;2023-05-07T15:05:11;14.10;84.60
4501;DHT22;2263;54.654;9.410;2023-05-07T15:07:40;14.10;84.30
4501;DHT22;2263;54.654;9.410;2023-05-07T15:10:07;14.10;84.60
4501;DHT22;2263;54.654;9.410;2023-05-07T15:12:35;14.10;84.20
4501;DHT22;2263;54.654;9.410;2023-05-07T15:15:03;14.10;84.70
4501;DHT22;2263;54.654;9.410;2023-05-07T15:17:31;14.10;84.00
4501;DHT22;2263;54.654;9.410;2023-05-07T15:19:58;14.10;82.70
4501;DHT22;2263;54.654;9.410;2023-05-07T15:22:26;14.20;83.80
4501;DHT22;2263;54.654;9.410;2023-05-07T15:24:54;14.10;84.10
4501;DHT22;2263;54.654;9.410;2023-05-07T15:27:25;14.10;83.60
4501;DHT22;2263;54.654;9.410;2023-05-07T15:29:55;14.10;84.00
4501;DHT22;2263;54.654;9.410;2023-05-07T15:32:24;14.10;83.90
4501;DHT22;2263;54.654;9.410;2023-05-07T15:34:52;14.10;83.90
4501;DHT22;2263;54.654;9.410;2023-05-07T15:37:20;14.10;83.80
4501;DHT22;2263;54.654;9.410;2023-05-07T15:39:47;14.10;83.80
4501;DHT22;2263;54.654;9.410;2023-05-07T15:42:15;14.10;83.40
4501;DHT22;2263;54.654;9.410;2023-05-07T15:44:43;14.10;83.60
4501;DHT22;2263;54.654;9.410;2023-05-07T15:47:10;14.10;83.40
4501;DHT22;2263;54.654;9.410;2023-05-07T15:49:41;14.00;83.30
4501;DHT22;2263;54.654;9.410;2023-05-07T15:52:09;14.10;83.20
4501;DHT22;2263;54.654;9.410;2023-05-07T15:54:42;14.10;83.40
4501;DHT22;2263;54.654;9.410;2023-05-07T15:57:10;14.10;83.40
4501;DHT22;2263;54.654;9.410;2023-05-07T15:59:38;14.10;83.70
4501;DHT22;2263;54.654;9.410;2023-05-07T16:02:06;14.10;83.70
4501;DHT22;2263;54.654;9.410;2023-05-07T16:04:35;14.00;83.50
4501;DHT22;2263;54.654;9.410;2023-05-07T16:07:03;14.00;83.10
4501;DHT22;2263;54.654;9.410;2023-05-07T16:09:31;14.10;83.10
4501;DHT22;2263;54.654;9.410;2023-05-07T16:11:59;14.10;83.90
4501;DHT22;2263;54.654;9.410;2023-05-07T16:14:27;14.10;83.30
4501;DHT22;2263;54.654;9.410;2023-05-07T16:16:55;14.10;83.20
4501;DHT22;2263;54.654;9.410;2023-05-07T16:19:23;14.10;82.60
4501;DHT22;2263;54.654;9.410;2023-05-07T16:21:50;14.00;82.90
4501;DHT22;2263;54.654;9.410;2023-05-07T16:24:19;14.00;82.80
4501;DHT22;2263;54.654;9.410;2023-05-07T16:26:46;14.00;82.90
4501;DHT22;2263;54.654;9.410;2023-05-07T16:29:14;14.00;83.00
4501;DHT22;2263;54.654;9.410;2023-05-07T16:31:42;14.00;82.30
4501;DHT22;2263;54.654;9.410;2023-05-07T16:34:10;14.00;82.10
4501;DHT22;2263;54.654;9.410;2023-05-07T16:36:38;14.00;82.60
4501;DHT22;2263;54.654;9.410;2023-05-07T16:39:06;14.00;82.90
4501;DHT22;2263;54.654;9.410;2023-05-07T16:41:33;14.00;83.60